createdAt,value
2018-08-07T00:00:53.792Z,52.90
2018-08-07T00:03:06.400Z,49.57
2018-08-07T00:05:19.310Z,50.13
2018-08-07T00:07:33.211Z,49.17
2018-08-07T00:09:45.628Z,48.90
2018-08-07T00:11:59.187Z,51.83
2018-08-07T00:14:12.392Z,109.77
2018-08-07T00:16:25.872Z,114.07
2018-08-07T00:18:41.579Z,160.57
2018-08-07T00:20:54.221Z,101.40
2018-08-07T00:23:06.942Z,84.80
2018-08-07T00:25:20.039Z,79.40
2018-08-07T00:27:32.917Z,70.80
2018-08-07T00:29:45.444Z,69.50
2018-08-07T00:31:57.820Z,66.60
2018-08-07T00:34:10.617Z,60.33
2018-08-07T00:36:23.433Z,62.70
2018-08-07T00:38:37.144Z,66.17
2018-08-07T00:40:50.317Z,66.93
2018-08-07T00:43:02.920Z,63.97
2018-08-07T00:45:16.346Z,61.33
2018-08-07T00:47:29.182Z,60.87
2018-08-07T00:49:41.590Z,58.00
2018-08-07T00:51:54.495Z,58.63
2018-08-07T00:54:07.271Z,56.10
2018-08-07T00:56:19.761Z,54.97
2018-08-07T00:58:33.344Z,54.50
2018-08-07T01:00:46.349Z,54.57
2018-08-07T01:02:59.675Z,52.43
2018-08-07T01:05:13.805Z,51.97
2018-08-07T01:07:26.821Z,52.30
2018-08-07T01:09:39.389Z,50.60
2018-08-07T01:11:51.900Z,52.37
2018-08-07T01:14:04.613Z,51.93
2018-08-07T01:16:17.632Z,46.83
2018-08-07T01:18:31.109Z,49.37
2018-08-07T01:20:43.931Z,45.07
2018-08-07T01:22:56.278Z,44.97
2018-08-07T01:25:10.335Z,45.33
2018-08-07T01:27:25.858Z,42.57
2018-08-07T01:29:38.458Z,43.97
2018-08-07T01:31:51.125Z,42.23
2018-08-07T01:34:05.735Z,40.27
2018-08-07T01:36:19.134Z,41.07
2018-08-07T01:38:32.036Z,40.93
2018-08-07T01:40:48.439Z,38.50
2018-08-07T01:43:01.188Z,38.97
2018-08-07T01:45:14.599Z,37.40
2018-08-07T01:47:27.770Z,36.73
2018-08-07T01:49:42.241Z,36.87
2018-08-07T01:51:54.977Z,35.87
2018-08-07T01:54:07.660Z,37.13
2018-08-07T01:56:21.143Z,33.13
2018-08-07T01:58:34.419Z,34.43
2018-08-07T02:00:47.968Z,33.83
2018-08-07T02:03:01.323Z,31.77
2018-08-07T02:05:15.031Z,32.90
2018-08-07T02:07:27.655Z,31.00
2018-08-07T02:09:40.345Z,29.90
2018-08-07T02:11:53.281Z,30.43
2018-08-07T02:14:06.299Z,28.67
2018-08-07T02:16:19.531Z,28.23
2018-08-07T02:18:32.476Z,26.53
2018-08-07T02:20:45.465Z,26.20
2018-08-07T02:22:58.122Z,24.30
2018-08-07T02:25:12.627Z,24.47
2018-08-07T02:27:25.304Z,24.17
2018-08-07T02:29:38.179Z,22.57
2018-08-07T02:31:50.487Z,23.37
2018-08-07T02:34:03.373Z,23.17
2018-08-07T02:36:16.959Z,23.87
2018-08-07T02:38:29.922Z,23.10
2018-08-07T02:40:43.012Z,21.50
2018-08-07T02:42:55.709Z,23.40
2018-08-07T02:45:08.410Z,22.17
2018-08-07T02:47:21.415Z,19.93
2018-08-07T02:49:34.023Z,21.00
2018-08-07T02:51:47.711Z,18.60
2018-08-07T02:54:00.968Z,22.27
2018-08-07T02:56:13.854Z,19.27
2018-08-07T02:58:26.948Z,20.80
2018-08-07T03:00:43.577Z,20.57
2018-08-07T03:02:56.580Z,19.33
2018-08-07T03:05:09.604Z,19.40
2018-08-07T03:07:22.918Z,18.00
2018-08-07T03:09:35.461Z,18.67
2018-08-07T03:11:48.791Z,18.30
2018-08-07T03:14:01.419Z,18.50
2018-08-07T03:16:13.819Z,18.70
2018-08-07T03:18:26.393Z,17.57
2018-08-07T03:20:38.741Z,16.17
2018-08-07T03:22:53.269Z,16.30
2018-08-07T03:25:06.097Z,16.83
2018-08-07T03:27:18.616Z,16.60
2018-08-07T03:29:31.190Z,15.80
2018-08-07T03:31:44.149Z,16.53
2018-08-07T03:33:59.229Z,15.73
2018-08-07T03:36:12.181Z,16.87
2018-08-07T03:38:24.745Z,17.03
2018-08-07T03:40:37.801Z,15.70
2018-08-07T03:42:50.280Z,15.60
2018-08-07T03:45:03.337Z,15.30
2018-08-07T03:47:16.277Z,14.97
2018-08-07T03:49:29.305Z,14.70
2018-08-07T03:51:42.249Z,14.47
2018-08-07T03:53:55.329Z,14.90
2018-08-07T03:56:08.019Z,15.57
2018-08-07T03:58:20.903Z,12.20
2018-08-07T04:00:34.239Z,14.77
2018-08-07T04:02:47.873Z,13.43
2018-08-07T04:05:00.938Z,13.20
2018-08-07T04:07:14.369Z,13.73
2018-08-07T04:09:27.627Z,13.10
2018-08-07T04:11:40.622Z,12.90
2018-08-07T04:13:52.937Z,13.70
2018-08-07T04:16:05.971Z,13.67
2018-08-07T04:18:19.021Z,12.23
2018-08-07T04:20:31.401Z,12.33
2018-08-07T04:22:44.586Z,13.50
2018-08-07T04:25:01.531Z,12.53
2018-08-07T04:27:14.545Z,12.10
2018-08-07T04:29:27.309Z,12.90
2018-08-07T04:31:40.346Z,12.07
2018-08-07T04:33:52.967Z,12.10
2018-08-07T04:36:05.507Z,12.20
2018-08-07T04:38:18.230Z,10.93
2018-08-07T04:40:30.911Z,11.80
2018-08-07T04:42:43.551Z,12.03
2018-08-07T04:44:56.056Z,12.33
2018-08-07T04:47:08.774Z,11.20
2018-08-07T04:49:21.896Z,11.43
2018-08-07T04:51:34.099Z,11.57
2018-08-07T04:53:48.226Z,11.67
2018-08-07T04:56:01.160Z,12.07
2018-08-07T04:58:13.946Z,11.47
2018-08-07T05:00:26.754Z,10.67
2018-08-07T05:02:39.170Z,10.20
2018-08-07T05:04:51.989Z,10.60
2018-08-07T05:07:05.225Z,11.53
2018-08-07T05:09:18.397Z,11.47
2018-08-07T05:11:31.007Z,11.70
2018-08-07T05:13:43.630Z,10.50
2018-08-07T05:15:56.341Z,11.70
2018-08-07T05:18:09.190Z,11.10
2018-08-07T05:20:21.928Z,10.30
2018-08-07T05:22:35.666Z,9.60
2018-08-07T05:24:49.451Z,10.13
2018-08-07T05:27:02.464Z,9.80
2018-08-07T05:29:15.346Z,9.80
2018-08-07T05:31:27.859Z,10.40
2018-08-07T05:33:40.543Z,10.90
2018-08-07T05:35:53.220Z,10.90
2018-08-07T05:38:05.985Z,10.63
2018-08-07T05:40:18.302Z,10.60
2018-08-07T05:42:30.860Z,10.13
2018-08-07T05:44:43.605Z,11.30
2018-08-07T05:46:56.112Z,10.37
2018-08-07T05:49:08.341Z,10.30
2018-08-07T05:51:21.861Z,10.67
2018-08-07T05:53:34.354Z,9.23
2018-08-07T05:55:47.200Z,9.83
2018-08-07T05:58:00.713Z,9.80
2018-08-07T06:00:14.484Z,9.57
2018-08-07T06:02:27.223Z,8.90
2018-08-07T06:04:40.556Z,9.17
2018-08-07T06:06:53.014Z,9.77
2018-08-07T06:09:05.726Z,9.40
2018-08-07T06:11:18.677Z,9.40
2018-08-07T06:13:31.584Z,8.70
2018-08-07T06:15:44.627Z,9.10
2018-08-07T06:17:57.869Z,8.50
2018-08-07T06:20:10.506Z,9.50
2018-08-07T06:22:23.001Z,8.90
2018-08-07T06:24:35.865Z,7.97
2018-08-07T06:26:48.538Z,8.40
2018-08-07T06:29:01.271Z,8.40
2018-08-07T06:31:13.883Z,8.57
2018-08-07T06:33:26.502Z,7.70
2018-08-07T06:35:39.800Z,8.23
2018-08-07T06:37:52.422Z,9.00
2018-08-07T06:40:04.790Z,8.43
2018-08-07T06:42:17.620Z,8.70
2018-08-07T06:44:30.238Z,8.00
2018-08-07T06:46:42.763Z,9.00
2018-08-07T06:48:56.238Z,8.20
2018-08-07T06:51:08.490Z,8.77
2018-08-07T06:53:21.302Z,8.07
2018-08-07T06:55:33.913Z,8.00
2018-08-07T06:57:46.134Z,8.47
2018-08-07T06:59:59.067Z,8.47
2018-08-07T07:02:13.575Z,8.13
2018-08-07T07:04:26.050Z,9.23
2018-08-07T07:06:39.018Z,8.47
2018-08-07T07:08:51.638Z,8.93
2018-08-07T07:11:05.050Z,8.40
2018-08-07T07:13:18.055Z,8.80
2018-08-07T07:15:31.136Z,9.97
2018-08-07T07:17:43.926Z,7.97
2018-08-07T07:19:56.248Z,9.20
2018-08-07T07:22:08.922Z,9.80
2018-08-07T07:24:23.005Z,9.70
2018-08-07T07:26:35.430Z,9.80
2018-08-07T07:28:47.874Z,9.10
2018-08-07T07:31:00.541Z,10.27
2018-08-07T07:33:13.523Z,9.87
2018-08-07T07:35:26.220Z,8.73
2018-08-07T07:37:39.220Z,9.13
2018-08-07T07:39:52.390Z,8.37
2018-08-07T07:42:06.371Z,9.40
2018-08-07T07:44:19.878Z,9.57
2018-08-07T07:46:32.682Z,8.60
2018-08-07T07:48:45.245Z,9.07
2018-08-07T07:50:59.157Z,9.00
2018-08-07T07:53:11.843Z,9.27
2018-08-07T07:55:24.236Z,8.53
2018-08-07T07:57:37.226Z,8.77
2018-08-07T07:59:49.361Z,8.80
2018-08-07T08:02:02.376Z,9.23
2018-08-07T08:04:15.500Z,8.47
2018-08-07T08:06:28.320Z,8.27
2018-08-07T08:08:40.849Z,8.90
2018-08-07T08:10:53.299Z,8.87
2018-08-07T08:13:06.431Z,8.73
2018-08-07T08:15:20.152Z,8.00
2018-08-07T08:17:32.909Z,7.90
2018-08-07T08:19:45.484Z,9.07
2018-08-07T08:21:58.336Z,7.33
2018-08-07T08:24:10.990Z,7.87
2018-08-07T08:26:23.671Z,8.60
2018-08-07T08:28:36.211Z,7.90
2018-08-07T08:30:48.814Z,8.03
2018-08-07T08:33:00.888Z,7.67
2018-08-07T08:35:15.071Z,7.23
2018-08-07T08:37:27.618Z,6.53
2018-08-07T08:39:41.002Z,7.10
2018-08-07T08:41:53.421Z,6.00
2018-08-07T08:44:06.097Z,6.20
2018-08-07T08:46:18.831Z,6.30
2018-08-07T08:48:31.536Z,6.57
2018-08-07T08:50:43.972Z,5.83
2018-08-07T08:52:56.491Z,6.17
2018-08-07T08:55:10.415Z,5.73
2018-08-07T08:57:22.886Z,5.60
2018-08-07T08:59:35.923Z,5.77
2018-08-07T09:01:49.056Z,5.73
2018-08-07T09:04:01.520Z,5.50
2018-08-07T09:06:14.450Z,5.63
2018-08-07T09:08:26.833Z,5.13
2018-08-07T09:10:39.009Z,5.97
2018-08-07T09:12:51.443Z,5.40
2018-08-07T09:15:04.245Z,4.97
2018-08-07T09:17:16.593Z,4.73
2018-08-07T09:19:30.618Z,4.63
2018-08-07T09:21:43.115Z,4.17
2018-08-07T09:23:55.982Z,4.20
2018-08-07T09:26:08.610Z,4.80
2018-08-07T09:28:21.152Z,4.23
2018-08-07T09:30:34.919Z,4.10
2018-08-07T09:32:49.041Z,4.33
2018-08-07T09:35:01.550Z,3.97
2018-08-07T09:37:13.978Z,4.00
2018-08-07T09:39:26.244Z,3.90
2018-08-07T09:41:38.708Z,4.00
2018-08-07T09:43:51.099Z,4.37
2018-08-07T09:46:03.580Z,3.33
2018-08-07T09:48:16.514Z,3.50
2018-08-07T09:50:28.687Z,3.50
2018-08-07T09:52:41.868Z,3.43
2018-08-07T09:54:54.329Z,3.37
2018-08-07T09:57:06.831Z,3.50
2018-08-07T09:59:19.284Z,3.53
2018-08-07T10:01:36.671Z,3.10
2018-08-07T10:03:49.288Z,3.40
2018-08-07T10:06:01.728Z,3.77
2018-08-07T10:08:14.514Z,3.60
2018-08-07T10:10:26.903Z,3.40
2018-08-07T10:12:39.226Z,3.30
2018-08-07T10:14:53.176Z,3.40
2018-08-07T10:17:05.761Z,3.43
2018-08-07T10:19:18.684Z,3.13
2018-08-07T10:21:31.471Z,2.70
2018-08-07T10:23:44.248Z,2.70
2018-08-07T10:25:56.870Z,2.63
2018-08-07T10:28:09.480Z,2.93
2018-08-07T10:30:22.578Z,3.10
2018-08-07T10:32:35.550Z,2.30
2018-08-07T10:34:48.451Z,3.50
2018-08-07T10:37:00.976Z,3.00
2018-08-07T10:39:14.070Z,2.97
2018-08-07T10:41:27.823Z,3.37
2018-08-07T10:43:40.620Z,3.90
2018-08-07T10:45:53.504Z,29.13
2018-08-07T10:48:06.072Z,21.70
2018-08-07T10:50:19.870Z,23.10
2018-08-07T10:52:32.851Z,22.73
2018-08-07T10:54:45.634Z,16.20
2018-08-07T10:56:59.365Z,14.77
2018-08-07T10:59:12.690Z,13.97
2018-08-07T11:01:25.431Z,13.30
2018-08-07T11:03:38.055Z,12.60
2018-08-07T11:05:50.593Z,11.57
2018-08-07T11:08:04.109Z,11.10
2018-08-07T11:10:16.929Z,12.63
2018-08-07T11:12:29.472Z,15.70
2018-08-07T11:14:42.597Z,24.47
2018-08-07T11:16:55.472Z,25.47
2018-08-07T11:19:08.048Z,29.50
2018-08-07T11:21:20.995Z,28.80
2018-08-07T11:23:34.060Z,111.23
2018-08-07T11:25:46.505Z,44.07
2018-08-07T11:28:00.582Z,36.90
2018-08-07T11:30:13.537Z,35.07
2018-08-07T11:32:25.958Z,37.03
2018-08-07T11:34:38.777Z,35.20
2018-08-07T11:36:51.794Z,33.83
2018-08-07T11:39:04.633Z,34.07
2018-08-07T11:41:17.555Z,33.83
2018-08-07T11:43:30.614Z,29.87
2018-08-07T11:45:43.301Z,30.10
2018-08-07T11:47:55.981Z,30.87
2018-08-07T11:50:08.488Z,32.23
2018-08-07T11:52:21.698Z,32.60
2018-08-07T11:54:34.398Z,31.13
2018-08-07T11:56:47.007Z,31.20
2018-08-07T11:58:59.740Z,31.33
2018-08-07T12:01:11.806Z,27.57
2018-08-07T12:03:24.347Z,25.53
2018-08-07T12:05:36.678Z,26.03
2018-08-07T12:07:49.951Z,25.30
2018-08-07T12:10:02.897Z,26.40
2018-08-07T12:12:16.341Z,24.30
2018-08-07T12:30:36.209Z,21.77
2018-08-07T12:32:48.825Z,22.03
2018-08-07T12:35:00.762Z,20.83
2018-08-07T12:37:13.218Z,20.40
2018-08-07T12:39:26.583Z,21.47
2018-08-07T12:41:39.073Z,19.63
2018-08-07T12:43:51.271Z,19.03
2018-08-07T12:46:03.910Z,18.80
2018-08-07T12:48:16.231Z,17.40
2018-08-07T12:50:30.254Z,17.10
2018-08-07T12:52:43.812Z,18.37
2018-08-07T12:54:56.677Z,16.10
2018-08-07T12:57:09.584Z,17.40
2018-08-07T12:59:26.368Z,16.70
2018-08-07T13:01:38.583Z,15.70
2018-08-07T13:03:51.142Z,15.80
2018-08-07T13:06:03.430Z,14.90
2018-08-07T13:08:15.873Z,15.93
2018-08-07T13:10:28.682Z,14.43
2018-08-07T13:12:44.137Z,16.30
2018-08-07T13:14:58.761Z,14.90
2018-08-07T13:17:11.048Z,15.83
2018-08-07T13:19:23.837Z,16.37
2018-08-07T13:21:37.237Z,12.90
2018-08-07T13:23:49.980Z,12.70
2018-08-07T13:26:02.457Z,13.13
2018-08-07T13:28:21.624Z,13.53
2018-08-07T13:30:36.750Z,14.20
2018-08-07T13:32:53.565Z,12.50
2018-08-07T13:35:07.730Z,13.37
2018-08-07T13:37:21.714Z,12.50
2018-08-07T13:39:36.210Z,12.40
2018-08-07T13:41:50.526Z,12.30
2018-08-07T13:44:05.092Z,11.30
2018-08-07T13:46:21.757Z,11.50
2018-08-07T13:48:38.681Z,11.50
2018-08-07T13:50:52.087Z,10.37
2018-08-07T13:53:04.881Z,10.50
2018-08-07T13:55:18.674Z,11.37
2018-08-07T13:57:31.063Z,9.70
2018-08-07T13:59:44.911Z,8.20
2018-08-07T14:01:59.548Z,9.77
2018-08-07T14:04:12.150Z,10.17
2018-08-07T14:06:25.083Z,9.00
2018-08-07T14:08:37.301Z,8.50
2018-08-07T14:10:49.773Z,9.83
2018-08-07T14:13:02.241Z,11.10
2018-08-07T14:15:15.581Z,17.13
2018-08-07T14:17:28.023Z,499.97
2018-08-07T14:19:41.273Z,194.32
2018-08-07T14:21:54.628Z,126.97
2018-08-07T14:24:07.494Z,104.37
2018-08-07T14:26:20.070Z,106.43
2018-08-07T14:28:33.467Z,96.53
2018-08-07T14:30:45.855Z,92.77
2018-08-07T14:32:58.724Z,82.03
2018-08-07T14:35:12.667Z,73.87
2018-08-07T14:37:25.564Z,72.37
2018-08-07T14:39:37.903Z,75.00
2018-08-07T14:41:50.565Z,68.57
2018-08-07T14:44:04.516Z,62.60
2018-08-07T14:46:17.436Z,61.60
2018-08-07T14:48:30.322Z,60.80
2018-08-07T14:50:43.335Z,56.50
2018-08-07T14:52:55.745Z,56.07
2018-08-07T14:55:07.983Z,52.97
2018-08-07T14:57:20.471Z,53.20
2018-08-07T14:59:33.091Z,52.93
2018-08-07T15:01:45.789Z,50.33
2018-08-07T15:03:59.026Z,51.30
2018-08-07T15:06:12.164Z,47.33
2018-08-07T15:08:25.064Z,46.23
2018-08-07T15:10:38.257Z,45.57
2018-08-07T15:12:51.013Z,43.47
2018-08-07T15:15:04.206Z,43.73
2018-08-07T15:17:16.993Z,41.87
2018-08-07T15:19:29.594Z,39.90
2018-08-07T15:21:42.440Z,39.83
2018-08-07T15:23:54.734Z,36.23
2018-08-07T15:26:07.884Z,37.47
2018-08-07T15:28:20.166Z,37.27
2018-08-07T15:30:32.755Z,35.50
2018-08-07T15:32:45.394Z,34.00
2018-08-07T15:34:57.854Z,35.07
2018-08-07T15:37:10.975Z,31.70
2018-08-07T15:39:24.496Z,31.40
2018-08-07T15:41:36.821Z,30.70
2018-08-07T15:43:50.147Z,28.67
2018-08-07T15:46:02.930Z,27.47
2018-08-07T15:48:15.532Z,27.93
2018-08-07T15:50:27.988Z,26.43
2018-08-07T15:52:40.820Z,27.80
2018-08-07T15:54:54.356Z,23.60
2018-08-07T15:57:07.404Z,23.00
2018-08-07T15:59:25.441Z,25.80
2018-08-07T16:01:39.954Z,22.80
2018-08-07T16:03:53.229Z,22.67
2018-08-07T16:06:07.880Z,22.83
2018-08-07T16:08:20.920Z,21.37
2018-08-07T16:10:33.490Z,22.83
2018-08-07T16:12:47.347Z,21.10
2018-08-07T16:15:00.775Z,19.50
2018-08-07T16:17:13.993Z,19.90
2018-08-07T16:19:26.069Z,17.90
2018-08-07T16:21:38.442Z,17.10
2018-08-07T16:23:50.839Z,16.47
2018-08-07T16:26:03.128Z,16.60
2018-08-07T16:28:15.292Z,16.30
2018-08-07T16:30:28.697Z,16.10
2018-08-07T16:32:41.158Z,15.70
2018-08-07T16:34:54.144Z,15.53
2018-08-07T16:37:06.532Z,16.10
2018-08-07T16:39:19.074Z,15.63
2018-08-07T16:41:31.628Z,15.43
2018-08-07T16:43:44.590Z,14.20
2018-08-07T16:45:57.158Z,13.50
2018-08-07T16:48:10.004Z,12.80
2018-08-07T16:50:23.459Z,12.90
2018-08-07T16:52:36.317Z,12.67
2018-08-07T16:54:49.031Z,12.20
2018-08-07T16:57:02.161Z,11.80
2018-08-07T16:59:14.738Z,11.80
2018-08-07T17:01:27.292Z,11.20
2018-08-07T17:03:39.917Z,11.30
2018-08-07T17:05:52.848Z,10.63
2018-08-07T17:08:06.049Z,10.53
2018-08-07T17:10:20.055Z,10.07
2018-08-07T17:12:33.292Z,10.60
2018-08-07T17:14:46.132Z,9.47
2018-08-07T17:16:58.849Z,9.00
2018-08-07T17:19:11.370Z,9.40
2018-08-07T17:21:23.780Z,9.57
2018-08-07T17:23:37.001Z,8.77
2018-08-07T17:25:49.598Z,9.80
2018-08-07T17:28:01.918Z,46.27
2018-08-07T17:30:14.910Z,101.47
2018-08-07T17:32:27.598Z,167.17
2018-08-07T17:34:40.132Z,67.70
2018-08-07T17:36:52.640Z,60.17
2018-08-07T17:39:05.363Z,55.80
2018-08-07T17:41:18.706Z,50.43
2018-08-07T17:43:45.838Z,44.83
2018-08-07T17:46:04.011Z,39.57
2018-08-07T17:48:17.730Z,38.00
2018-08-07T17:50:37.150Z,35.47
2018-08-07T17:52:49.883Z,30.87
2018-08-07T17:55:02.453Z,32.37
2018-08-07T17:57:15.246Z,29.50
2018-08-07T17:59:27.982Z,27.37
2018-08-07T18:01:40.479Z,28.43
2018-08-07T18:03:53.212Z,25.70
2018-08-07T18:06:06.424Z,25.97
2018-08-07T18:08:19.321Z,24.63
2018-08-07T18:10:31.718Z,25.00
2018-08-07T18:12:43.763Z,22.50
2018-08-07T18:14:57.069Z,23.37
2018-08-07T18:17:09.897Z,21.10
2018-08-07T18:19:22.303Z,22.73
2018-08-07T18:21:34.802Z,21.83
2018-08-07T18:23:47.099Z,20.00
2018-08-07T18:25:59.742Z,20.10
2018-08-07T18:28:12.313Z,19.63
2018-08-07T18:30:26.557Z,19.10
2018-08-07T18:32:39.635Z,20.60
2018-08-07T18:34:52.981Z,17.67
2018-08-07T18:37:05.244Z,17.37
2018-08-07T18:39:17.462Z,17.40
2018-08-07T18:41:29.821Z,16.10
2018-08-07T18:43:42.415Z,17.00
2018-08-07T18:45:54.924Z,15.70
2018-08-07T18:48:07.570Z,14.30
2018-08-07T18:50:19.828Z,18.00
2018-08-07T18:52:32.369Z,16.20
2018-08-07T18:54:45.177Z,15.73
2018-08-07T18:56:57.897Z,14.90
2018-08-07T18:59:10.877Z,16.07
2018-08-07T19:01:23.971Z,15.90
2018-08-07T19:03:36.275Z,15.23
2018-08-07T19:05:48.983Z,13.80
2018-08-07T19:08:04.093Z,14.23
2018-08-07T19:10:16.696Z,14.07
2018-08-07T19:12:29.746Z,13.57
2018-08-07T19:14:42.077Z,13.67
2018-08-07T19:16:55.186Z,13.63
2018-08-07T19:19:08.053Z,12.57
2018-08-07T19:21:21.345Z,12.10
2018-08-07T19:23:34.361Z,12.07
2018-08-07T19:25:47.141Z,12.23
2018-08-07T19:28:00.142Z,11.93
2018-08-07T19:30:13.792Z,11.80
2018-08-07T19:32:26.504Z,11.83
2018-08-07T19:34:39.097Z,11.47
2018-08-07T19:36:51.752Z,12.40
2018-08-07T19:39:05.130Z,12.40
2018-08-07T19:41:18.181Z,10.90
2018-08-07T19:43:31.391Z,12.77
2018-08-07T19:45:43.818Z,11.20
2018-08-07T19:47:56.135Z,11.50
2018-08-07T19:50:08.518Z,10.40
2018-08-07T19:52:20.943Z,11.63
2018-08-07T19:54:33.536Z,10.30
2018-08-07T19:56:45.981Z,10.53
2018-08-07T19:58:58.317Z,10.87
2018-08-07T20:01:10.686Z,10.40
2018-08-07T20:03:23.282Z,10.40
2018-08-07T20:05:36.297Z,9.20
2018-08-07T20:07:48.571Z,9.90
2018-08-07T20:10:01.138Z,8.80
2018-08-07T20:12:13.409Z,9.60
2018-08-07T20:14:25.633Z,10.30
2018-08-07T20:16:38.483Z,10.17
2018-08-07T20:18:51.294Z,9.47
2018-08-07T20:21:04.812Z,9.77
2018-08-07T20:23:17.473Z,9.00
2018-08-07T20:25:30.341Z,8.70
2018-08-07T20:27:43.127Z,9.23
2018-08-07T20:29:56.302Z,9.10
2018-08-07T20:32:11.943Z,8.33
2018-08-07T20:34:25.155Z,7.97
2018-08-07T20:36:38.245Z,7.63
2018-08-07T20:38:50.597Z,8.17
2018-08-07T20:41:02.843Z,7.67
2018-08-07T20:43:15.711Z,7.80
2018-08-07T20:45:27.937Z,7.90
2018-08-07T20:47:40.918Z,8.03
2018-08-07T20:49:53.593Z,7.40
2018-08-07T20:52:06.164Z,7.53
2018-08-07T20:54:19.165Z,7.77
2018-08-07T20:56:31.794Z,7.87
2018-08-07T20:58:44.069Z,7.20
2018-08-07T21:00:56.602Z,7.67
2018-08-07T21:03:09.304Z,7.10
2018-08-07T21:05:22.651Z,6.67
2018-08-07T21:07:35.954Z,7.50
2018-08-07T21:09:48.532Z,7.30
2018-08-07T21:12:00.897Z,6.53
2018-08-07T21:14:13.418Z,6.73
2018-08-07T21:16:25.901Z,6.83
2018-08-07T21:18:38.628Z,6.37
2018-08-07T21:20:51.960Z,6.60
2018-08-07T21:23:04.405Z,6.93
2018-08-07T21:25:17.928Z,7.07
2018-08-07T21:27:31.771Z,6.80
2018-08-07T21:29:45.642Z,6.17
2018-08-07T21:31:58.547Z,6.73
2018-08-07T21:34:11.029Z,5.70
2018-08-07T21:36:23.785Z,6.03
2018-08-07T21:38:36.669Z,6.03
2018-08-07T21:40:49.265Z,7.17
2018-08-07T21:43:01.907Z,6.60
2018-08-07T21:45:15.935Z,5.70
2018-08-07T21:47:29.064Z,6.60
2018-08-07T21:49:42.108Z,6.70
2018-08-07T21:51:55.226Z,5.77
2018-08-07T21:54:09.600Z,6.00
2018-08-07T21:56:22.611Z,5.40
2018-08-07T21:58:35.319Z,6.07
2018-08-07T22:00:51.881Z,6.33
2018-08-07T22:03:04.530Z,5.40
2018-08-07T22:05:16.893Z,5.00
2018-08-07T22:07:30.785Z,5.20
2018-08-07T22:09:43.665Z,5.20
2018-08-07T22:11:57.100Z,5.83
2018-08-07T22:14:09.793Z,5.10
2018-08-07T22:16:22.317Z,5.97
2018-08-07T22:18:34.755Z,5.90
2018-08-07T22:20:47.576Z,4.93
2018-08-07T22:23:00.048Z,5.87
2018-08-07T22:25:12.823Z,5.17
2018-08-07T22:27:26.390Z,5.20
2018-08-07T22:29:39.669Z,5.60
2018-08-07T22:31:52.870Z,5.67
2018-08-07T22:34:05.670Z,5.70
2018-08-07T22:36:18.707Z,4.97
2018-08-07T22:38:31.367Z,5.10
2018-08-07T22:40:43.634Z,4.20
2018-08-07T22:42:57.203Z,4.60
2018-08-07T22:45:10.035Z,4.90
2018-08-07T22:47:22.724Z,6.10
2018-08-07T22:49:35.155Z,5.80
2018-08-07T22:51:48.314Z,5.60
2018-08-07T22:54:00.781Z,5.30
2018-08-07T22:56:14.034Z,4.40
2018-08-07T22:58:26.593Z,5.47
2018-08-07T23:00:38.898Z,23.27
2018-08-07T23:02:52.366Z,9.90
2018-08-07T23:05:04.641Z,9.73
2018-08-07T23:07:17.263Z,10.13
2018-08-07T23:09:30.082Z,8.97
2018-08-07T23:11:42.795Z,8.53
2018-08-07T23:13:55.374Z,8.90
2018-08-07T23:16:08.391Z,8.50
2018-08-07T23:18:20.662Z,7.33
2018-08-07T23:20:32.965Z,7.07
2018-08-07T23:22:46.198Z,7.77
2018-08-07T23:24:58.838Z,7.40
2018-08-07T23:27:11.322Z,7.53
2018-08-07T23:29:24.069Z,7.50
2018-08-07T23:31:36.734Z,6.33
2018-08-07T23:33:49.306Z,6.80
2018-08-07T23:36:03.461Z,7.40
2018-08-07T23:38:16.333Z,6.03
2018-08-07T23:40:29.373Z,6.40
2018-08-07T23:42:42.174Z,6.30
2018-08-07T23:44:55.134Z,6.37
2018-08-07T23:47:08.183Z,5.87
2018-08-07T23:49:21.339Z,5.80
2018-08-07T23:51:33.741Z,5.17
2018-08-07T23:53:46.493Z,6.73
2018-08-07T23:55:59.225Z,5.43
2018-08-07T23:58:11.991Z,5.83
